Sugar Mountain, North Carolina
Current Conditions -  °F | °C
As of 5:15 PM on Saturday 25 Oct 2014 (Local Time) from KTNB Reporting Station
Clear Clear  
Wind Chill: 60°   Ceiling: Unl
Heat Index: 60°   Visibility: 10mi
Dew Point: 38°   Wind: 9mph
Humidity: 44%   Direction: 300°WNW
Pressure: 30.02"   Gusts: 18mph
Location:  36.1797°N, 81.8424°W
Report Text: KTNB 252115Z AUTO 30008G16KT 10SM CLR 16/04 A3002 RMK AO2 T01560035
Loading
Personal Weather Stations






























Interactive Weather Map
Tropical Storm Tracking
New forecast layout! Learn more

10-Day Weather Forecast

Advertisements
Track Severe Weather on mobile